Time;durP1;ratioP1;P1;durP2;ratioP2;P2;SDS_P1;SDS_P2;PMS_P1;PMS_P2;Temp;Humidity;BMP_temperature;BMP_pressure;BME280_temperature;BME280_humidity;BME280_pressure;Samples;Min_cycle;Max_cycle;Signal;HPM_P1;HPM_P2
2022/10/07 00:00:00;;;;;;;;;16.75;16.75;;;;;18.54;59.67;99943.88;4937278;28;102648;-60
2022/10/07 00:02:27;;;;;;;;;19.50;18.00;;;;;18.54;59.50;99946.63;4930562;28;103335;-60
2022/10/07 00:04:54;;;;;;;;;14.50;14.00;;;;;18.54;59.36;99938.41;4925388;28;104114;-60
2022/10/07 00:07:21;;;;;;;;;18.75;17.75;;;;;18.54;59.54;99937.56;4942807;28;102476;-60
2022/10/07 00:09:48;;;;;;;;;20.50;18.25;;;;;18.52;59.72;99936.91;4933890;28;102413;-60
2022/10/07 00:12:15;;;;;;;;;20.50;18.00;;;;;18.51;59.91;99938.78;4929518;28;102405;-59
2022/10/07 00:14:42;;;;;;;;;18.67;18.00;;;;;18.49;59.54;99942.81;4941915;28;103978;-60
2022/10/07 00:17:09;;;;;;;;;18.50;16.50;;;;;18.45;59.88;99931.47;4929040;28;102559;-60
2022/10/07 00:19:36;;;;;;;;;18.50;18.00;;;;;18.45;60.05;99928.72;4937091;28;102875;-59
2022/10/07 00:22:03;;;;;;;;;18.50;17.25;;;;;18.44;60.13;99934.41;4917470;28;102443;-59
2022/10/07 00:24:30;;;;;;;;;18.00;17.25;;;;;18.45;59.64;99938.84;4929639;28;104141;-60
2022/10/07 00:26:57;;;;;;;;;21.75;18.00;;;;;18.43;59.99;99930.84;4933516;28;102538;-60
2022/10/07 00:29:24;;;;;;;;;19.25;19.00;;;;;18.42;59.69;99933.78;4945380;28;102574;-59
2022/10/07 00:31:53;;;;;;;;;16.00;16.00;;;;;18.39;59.95;99918.66;4942429;28;102680;-60
2022/10/07 00:34:23;;;;;;;;;20.25;17.75;;;;;18.39;60.07;99923.28;4936237;28;104230;-60
2022/10/07 00:36:50;;;;;;;;;18.25;17.00;;;;;18.35;60.17;99925.63;4944821;28;102173;-60
2022/10/07 00:39:17;;;;;;;;;19.75;19.00;;;;;18.33;60.50;99926.91;4938093;28;103078;-60
2022/10/07 00:41:49;;;;;;;;;22.00;18.00;;;;;18.33;59.72;99924.97;4923123;28;102599;-60
2022/10/07 00:44:31;;;;;;;;;22.75;19.25;;;;;18.32;59.93;99917.84;4920495;28;104064;-60
2022/10/07 00:46:58;;;;;;;;;19.25;18.00;;;;;18.35;59.82;99916.56;4937487;28;102611;-60
2022/10/07 00:49:28;;;;;;;;;13.00;12.50;;;;;18.33;60.08;99919.50;4907513;28;102358;-60
2022/10/07 00:51:56;;;;;;;;;12.75;10.50;;;;;18.34;60.43;99914.88;4916353;28;102338;-60
2022/10/07 00:54:23;;;;;;;;;18.00;17.25;;;;;18.33;59.71;99914.03;4914068;28;104048;-60
2022/10/07 00:56:50;;;;;;;;;22.50;21.50;;;;;18.33;60.23;99902.25;4918990;28;102643;-60
2022/10/07 00:59:17;;;;;;;;;25.50;18.00;;;;;18.32;60.15;99911.53;4930644;28;102171;-59
2022/10/07 01:01:44;;;;;;;;;17.00;15.00;;;;;18.30;60.37;99898.06;4927296;28;102171;-59
2022/10/07 01:04:11;;;;;;;;;19.00;17.25;;;;;18.28;60.00;99905.66;4909993;28;104054;-59
2022/10/07 01:06:38;;;;;;;;;17.00;17.00;;;;;18.25;60.38;99895.97;4917004;28;103891;-59
2022/10/07 01:09:19;;;;;;;;;17.75;15.75;;;;;18.25;60.01;99895.13;4896801;28;104639;-60
2022/10/07 01:12:05;;;;;;;;;17.50;15.75;;;;;18.22;60.70;99890.94;4911024;28;102296;-60
2022/10/07 01:15:11;;;;;;;;;17.25;16.00;;;;;18.19;60.37;99885.06;4930130;28;107882;-59
2022/10/07 01:18:08;;;;;;;;;21.25;19.50;;;;;18.16;60.16;99889.06;4909491;28;102496;-59
2022/10/07 01:21:23;;;;;;;;;20.00;18.25;;;;;18.15;60.39;99886.53;4939042;28;102616;-60
2022/10/07 01:24:40;;;;;;;;;20.75;19.00;;;;;18.13;60.75;99881.31;4932280;28;102529;-60
2022/10/07 01:27:15;;;;;;;;;17.75;17.00;;;;;18.09;60.62;99873.75;4929092;28;108036;-59
2022/10/07 01:29:54;;;;;;;;;20.25;19.00;;;;;18.06;60.72;99871.41;4924873;28;102601;-59
2022/10/07 01:32:38;;;;;;;;;20.75;17.75;;;;;18.07;60.86;99870.38;4917796;28;103360;-60
2022/10/07 01:35:12;;;;;;;;;18.75;18.00;;;;;18.06;60.84;99868.69;4943594;28;103583;-60
2022/10/07 01:37:42;;;;;;;;;18.25;16.25;;;;;18.08;60.79;99877.53;4896630;28;108967;-60
2022/10/07 01:40:12;;;;;;;;;21.75;19.50;;;;;18.10;60.21;99872.69;4909639;28;102419;-60
2022/10/07 01:42:39;;;;;;;;;19.50;18.50;;;;;18.11;60.35;99872.44;4928581;28;103062;-60
2022/10/07 01:45:08;;;;;;;;;23.25;20.00;;;;;18.12;60.34;99874.13;4920816;28;102456;-60
2022/10/07 01:47:35;;;;;;;;;20.50;19.00;;;;;18.11;60.25;99871.59;4925064;28;110899;-60
2022/10/07 01:50:09;;;;;;;;;19.00;18.50;;;;;18.09;61.07;99865.53;4937241;28;102182;-59
2022/10/07 01:53:00;;;;;;;;;19.75;19.25;;;;;18.06;60.32;99860.47;4944314;28;102361;-60
2022/10/07 01:55:39;;;;;;;;;17.50;17.25;;;;;18.03;60.87;99860.91;4940520;28;102164;-59
2022/10/07 01:58:40;;;;;;;;;23.00;19.50;;;;;18.01;60.52;99858.38;4941272;28;108880;-60
2022/10/07 02:01:25;;;;;;;;;18.25;18.00;;;;;17.99;60.99;99867.91;4943817;28;102415;-59
2022/10/07 02:04:13;;;;;;;;;24.25;22.75;;;;;17.97;60.78;99859.03;4917274;28;102348;-60
2022/10/07 02:07:12;;;;;;;;;19.50;18.50;;;;;17.95;60.80;99861.19;4936875;28;102422;-62
2022/10/07 02:10:04;;;;;;;;;17.50;17.50;;;;;17.94;60.84;99859.50;4901130;28;108669;-64
2022/10/07 02:12:49;;;;;;;;;20.00;18.25;;;;;17.92;61.06;99850.69;4905900;28;102314;-60
2022/10/07 02:15:20;;;;;;;;;19.50;16.75;;;;;17.91;60.82;99854.47;4938346;28;102554;-60
2022/10/07 02:17:57;;;;;;;;;22.50;20.00;;;;;17.87;61.60;99847.75;4915350;28;102478;-60
2022/10/07 02:20:27;;;;;;;;;17.25;17.25;;;;;17.89;60.97;99853.81;4928347;28;104212;-59
2022/10/07 02:22:55;;;;;;;;;17.50;16.75;;;;;17.88;61.12;99854.91;4939778;28;102524;-60
2022/10/07 02:25:22;;;;;;;;;17.25;16.25;;;;;17.87;61.41;99842.28;4898225;28;102137;-60
2022/10/07 02:27:50;;;;;;;;;18.50;17.50;;;;;17.90;61.16;99850.03;4938723;28;102820;-60
2022/10/07 02:30:18;;;;;;;;;18.00;17.25;;;;;17.90;60.74;99847.31;4919518;28;104325;-60
2022/10/07 02:32:52;;;;;;;;;21.25;19.25;;;;;17.90;60.71;99847.31;4916365;28;102635;-59
2022/10/07 02:35:31;;;;;;;;;18.75;17.00;;;;;17.91;61.09;99849.00;4929136;28;104121;-60
2022/10/07 02:38:00;;;;;;;;;17.25;16.50;;;;;17.90;60.90;99847.31;4920018;28;102854;-59
2022/10/07 02:40:33;;;;;;;;;19.50;18.50;;;;;17.86;61.26;99843.31;4918110;28;104250;-60
2022/10/07 02:43:10;;;;;;;;;17.50;16.50;;;;;17.84;61.16;99843.53;4898931;28;105054;-59
2022/10/07 02:46:00;;;;;;;;;19.75;15.50;;;;;17.81;61.67;99844.81;4905454;28;102324;-59
2022/10/07 02:48:31;;;;;;;;;17.25;16.00;;;;;17.81;61.00;99836.63;4911875;28;102380;-59
2022/10/07 02:50:59;;;;;;;;;16.75;15.50;;;;;17.81;61.64;99839.34;4923120;28;103441;-59
2022/10/07 02:53:27;;;;;;;;;19.00;17.00;;;;;17.77;61.85;99840.84;4897357;28;102330;-59
2022/10/07 02:55:54;;;;;;;;;17.50;15.50;;;;;17.77;61.56;99840.84;4911729;28;102200;-59
2022/10/07 02:58:24;;;;;;;;;21.25;19.00;;;;;17.77;61.50;99842.75;4924590;28;103224;-59
2022/10/07 03:00:54;;;;;;;;;16.50;16.50;;;;;17.75;61.83;99829.25;4905915;28;104074;-60
2022/10/07 03:03:22;;;;;;;;;18.25;17.25;;;;;17.75;61.55;99834.75;4922518;28;102545;-59
2022/10/07 03:05:49;;;;;;;;;18.75;17.00;;;;;17.72;61.10;99835.19;4942638;28;102439;-60
2022/10/07 03:08:16;;;;;;;;;17.75;15.75;;;;;17.70;61.47;99837.28;4931786;28;102940;-60
2022/10/07 03:10:43;;;;;;;;;20.25;18.50;;;;;17.69;61.96;99829.31;4913149;28;104172;-60
2022/10/07 03:13:10;;;;;;;;;16.75;15.75;;;;;17.67;61.38;99832.25;4930910;28;102214;-59
2022/10/07 03:15:37;;;;;;;;;17.75;17.00;;;;;17.67;61.96;99832.25;4939381;28;102755;-60
2022/10/07 03:18:24;;;;;;;;;19.00;18.25;;;;;17.67;61.42;99832.25;4938842;28;102547;-59
2022/10/07 03:20:54;;;;;;;;;17.75;15.00;;;;;17.67;61.19;99828.69;4934296;28;109013;-60
2022/10/07 03:23:24;;;;;;;;;17.00;15.25;;;;;17.67;61.58;99832.25;4936125;28;102835;-60
2022/10/07 03:25:52;;;;;;;;;18.00;17.25;;;;;17.68;61.71;99820.25;4929520;28;102215;-59
2022/10/07 03:28:20;;;;;;;;;20.00;17.25;;;;;17.66;61.63;99821.53;4933965;28;103740;-60
2022/10/07 03:30:47;;;;;;;;;14.50;14.50;;;;;17.64;61.41;99819.03;4938590;28;104078;-60
2022/10/07 03:33:15;;;;;;;;;15.75;15.75;;;;;17.64;62.21;99826.38;4930606;28;102336;-60
2022/10/07 03:35:42;;;;;;;;;15.00;14.00;;;;;17.62;61.81;99826.59;4933631;28;102375;-60
2022/10/07 03:38:09;;;;;;;;;18.50;16.50;;;;;17.62;61.82;99814.81;4922434;28;102417;-60
2022/10/07 03:40:37;;;;;;;;;20.00;17.00;;;;;17.60;61.68;99809.56;4930711;28;108996;-60
2022/10/07 03:43:04;;;;;;;;;19.50;18.50;;;;;17.59;61.65;99812.50;4926422;28;103731;-59
2022/10/07 03:45:31;;;;;;;;;21.00;19.00;;;;;17.58;62.33;99814.41;4935155;28;103337;-60
2022/10/07 03:47:58;;;;;;;;;17.50;16.00;;;;;17.55;61.56;99806.63;4933925;28;102574;-59
2022/10/07 03:50:25;;;;;;;;;15.00;14.50;;;;;17.56;62.19;99805.53;4929264;28;107068;-60
2022/10/07 03:52:52;;;;;;;;;16.50;16.50;;;;;17.54;62.33;99810.41;4917343;28;102848;-59
2022/10/07 03:55:19;;;;;;;;;15.75;15.25;;;;;17.52;62.38;99807.03;4926990;28;102602;-59
2022/10/07 03:57:49;;;;;;;;;16.75;15.75;;;;;17.49;62.05;99793.78;4928642;28;102514;-59
2022/10/07 04:00:22;;;;;;;;;14.00;13.25;;;;;17.50;61.71;99798.22;4919329;28;104070;-59
2022/10/07 04:02:49;;;;;;;;;16.00;15.00;;;;;17.50;62.36;99794.63;4932759;28;102557;-60
2022/10/07 04:05:16;;;;;;;;;12.50;11.75;;;;;17.50;61.43;99792.75;4933927;28;102380;-60
2022/10/07 04:07:44;;;;;;;;;16.75;15.75;;;;;17.52;61.53;99796.09;4931376;28;102597;-59
2022/10/07 04:10:14;;;;;;;;;19.00;17.00;;;;;17.52;61.33;99793.34;4915355;28;104246;-60
2022/10/07 04:12:41;;;;;;;;;18.25;14.75;;;;;17.53;61.58;99786.00;4912332;28;102453;-60
2022/10/07 04:15:12;;;;;;;;;17.00;16.25;;;;;17.50;61.28;99784.53;4918218;28;103670;-60
2022/10/07 04:17:40;;;;;;;;;16.50;15.25;;;;;17.50;62.07;99784.53;4925468;28;102388;-68
2022/10/07 04:20:07;;;;;;;;;16.00;15.25;;;;;17.52;61.19;99782.41;4918336;28;103998;-61
2022/10/07 04:22:35;;;;;;;;;19.00;15.00;;;;;17.53;61.51;99786.00;4922063;28;104250;-61
2022/10/07 04:27:55;;;;;;;;;18.00;15.50;;;;;17.52;61.71;99779.69;4930582;28;102135;-61
2022/10/07 04:30:23;;;;;;;;;18.75;15.25;;;;;17.51;61.27;99778.03;4926509;28;103996;-61
2022/10/07 04:32:50;;;;;;;;;17.50;14.75;;;;;17.49;61.24;99780.13;4929340;28;104085;-61
2022/10/07 04:35:18;;;;;;;;;14.25;12.25;;;;;17.48;61.49;99775.69;4928290;28;102361;-61
2022/10/07 04:37:48;;;;;;;;;17.25;15.75;;;;;17.47;61.80;99782.22;4923162;28;103855;-61
2022/10/07 04:40:16;;;;;;;;;20.50;18.25;;;;;17.44;61.69;99777.19;4925719;28;104159;-61
2022/10/07 04:45:28;;;;;;;;;15.25;14.00;;;;;17.39;61.80;99771.53;4913506;28;102557;-61
2022/10/07 04:47:55;;;;;;;;;18.00;15.50;;;;;17.38;62.07;99765.22;4915041;28;102657;-60
2022/10/07 04:50:22;;;;;;;;;15.50;12.25;;;;;17.37;61.52;99766.31;4930268;28;104049;-61
2022/10/07 04:52:49;;;;;;;;;16.50;14.50;;;;;17.37;61.45;99770.94;4935481;28;102135;-61
2022/10/07 04:55:16;;;;;;;;;17.00;15.25;;;;;17.39;61.88;99763.31;4929126;28;102993;-61
2022/10/07 04:57:43;;;;;;;;;17.75;15.50;;;;;17.38;61.88;99757.00;4935796;28;107379;-61
2022/10/07 05:00:10;;;;;;;;;16.25;14.25;;;;;17.39;62.23;99752.41;4927775;28;108966;-61
2022/10/07 05:02:37;;;;;;;;;12.50;11.00;;;;;17.37;61.76;99752.63;4938932;28;102127;-62
2022/10/07 05:05:04;;;;;;;;;15.00;13.25;;;;;17.36;61.80;99761.03;4945253;28;102449;-61
2022/10/07 05:07:31;;;;;;;;;17.75;15.75;;;;;17.34;61.90;99757.66;4948029;28;102283;-61
2022/10/07 05:09:58;;;;;;;;;16.00;15.50;;;;;17.32;61.66;99752.44;4940337;28;104061;-61
2022/10/07 05:12:26;;;;;;;;;16.00;14.50;;;;;17.31;62.62;99758.94;4934590;28;105175;-61
2022/10/07 05:14:53;;;;;;;;;11.00;11.00;;;;;17.31;62.12;99756.22;4944380;28;102434;-61
2022/10/07 05:17:20;;;;;;;;;17.50;16.25;;;;;17.30;62.69;99760.00;4932516;28;102947;-61
2022/10/07 05:19:47;;;;;;;;;17.00;15.25;;;;;17.31;62.53;99758.09;4931845;28;104046;-61
2022/10/07 05:22:14;;;;;;;;;17.00;13.50;;;;;17.30;61.37;99756.44;4941983;28;103195;-61
2022/10/07 05:24:41;;;;;;;;;12.75;12.00;;;;;17.29;62.16;99757.50;4939824;28;103187;-61
2022/10/07 05:27:08;;;;;;;;;16.75;15.75;;;;;17.28;62.07;99756.66;4923387;28;102317;-61
2022/10/07 05:29:35;;;;;;;;;19.00;14.75;;;;;17.27;61.51;99748.66;4924005;28;103867;-61
2022/10/07 05:32:02;;;;;;;;;14.75;13.00;;;;;17.27;62.47;99743.19;4935583;28;102210;-60
2022/10/07 05:34:30;;;;;;;;;16.00;14.50;;;;;17.24;62.51;99747.22;4929401;28;102628;-61
2022/10/07 05:36:58;;;;;;;;;9.25;8.50;;;;;17.23;62.07;99747.41;4917678;28;102249;-61
2022/10/07 05:39:25;;;;;;;;;15.00;14.75;;;;;17.25;62.64;99739.81;4937633;28;104112;-61
2022/10/07 05:41:52;;;;;;;;;14.50;13.50;;;;;17.25;62.14;99751.59;4919068;28;102524;-61
2022/10/07 05:44:19;;;;;;;;;15.75;13.75;;;;;17.27;62.38;99745.94;4935018;28;102136;-61
2022/10/07 05:46:46;;;;;;;;;12.25;11.50;;;;;17.29;61.60;99752.03;4932291;28;102535;-61
2022/10/07 05:49:12;;;;;;;;;17.00;15.00;;;;;17.29;62.01;99747.38;4933536;28;104036;-61
2022/10/07 05:51:40;;;;;;;;;15.50;14.50;;;;;17.28;61.68;99743.00;4939291;28;102320;-61
2022/10/07 05:54:07;;;;;;;;;18.00;14.00;;;;;17.30;60.88;99746.34;4918181;28;102359;-60
2022/10/07 05:56:36;;;;;;;;;13.75;13.00;;;;;17.33;61.52;99745.06;4925535;28;102339;-60
2022/10/07 05:59:03;;;;;;;;;13.50;13.25;;;;;17.34;60.79;99744.00;4943545;28;104071;-60
2022/10/07 06:01:30;;;;;;;;;10.75;10.00;;;;;17.32;61.21;99740.66;4930606;28;102359;-61
2022/10/07 06:03:57;;;;;;;;;13.50;13.50;;;;;17.30;61.50;99746.34;4932678;28;102201;-61
2022/10/07 06:06:24;;;;;;;;;13.50;13.00;;;;;17.28;60.34;99745.72;4933015;28;102629;-61
2022/10/07 06:08:52;;;;;;;;;12.25;12.25;;;;;17.27;60.67;99748.66;4924891;28;104061;-61
2022/10/07 06:14:05;;;;;;;;;15.00;13.00;;;;;17.25;61.42;99748.88;4927830;28;102188;-61
2022/10/07 06:16:32;;;;;;;;;14.75;12.50;;;;;17.24;61.62;99741.75;4913394;28;102194;-61
2022/10/07 06:18:59;;;;;;;;;14.00;12.00;;;;;17.24;61.12;99744.47;4919243;28;103909;-61
2022/10/07 06:21:26;;;;;;;;;18.00;15.50;;;;;17.24;60.88;99740.91;4926414;28;104146;-61
2022/10/07 06:23:54;;;;;;;;;14.25;14.00;;;;;17.23;62.06;99740.06;4919853;28;102462;-60
2022/10/07 06:26:21;;;;;;;;;16.00;13.50;;;;;17.22;61.29;99734.81;4930590;28;102957;-61
2022/10/07 06:28:49;;;;;;;;;10.00;9.00;;;;;17.22;61.32;99727.44;4922933;28;104037;-61
2022/10/07 06:31:21;;;;;;;;;17.50;15.50;;;;;17.23;62.08;99733.75;4934742;28;102120;-61
2022/10/07 06:33:49;;;;;;;;;14.75;14.25;;;;;17.25;62.08;99729.72;4941368;28;102376;-60
2022/10/07 06:36:16;;;;;;;;;8.00;7.00;;;;;17.27;61.65;99732.25;4934331;28;104175;-61
2022/10/07 06:38:44;;;;;;;;;15.00;13.25;;;;;17.27;61.14;99735.84;4930363;28;104075;-61
2022/10/07 06:41:11;;;;;;;;;14.50;14.00;;;;;17.29;61.75;99736.44;4928615;28;102499;-60
2022/10/07 06:43:38;;;;;;;;;12.00;12.00;;;;;17.30;61.50;99737.28;4922157;28;102226;-61
2022/10/07 06:46:06;;;;;;;;;12.75;12.00;;;;;17.29;61.28;99736.44;4925214;28;102076;-61
2022/10/07 06:48:33;;;;;;;;;14.50;13.25;;;;;17.29;61.13;99736.44;4917906;28;104031;-60
2022/10/07 06:51:04;;;;;;;;;13.75;13.00;;;;;17.30;61.37;99732.66;4925252;28;102681;-61
2022/10/07 06:53:32;;;;;;;;;15.00;12.00;;;;;17.31;60.93;99730.78;4914662;28;102272;-60
2022/10/07 06:56:02;;;;;;;;;12.75;11.75;;;;;17.31;61.12;99723.41;4932781;28;102653;-60
2022/10/07 06:58:29;;;;;;;;;15.00;14.00;;;;;17.33;61.53;99725.94;4935992;28;104116;-61
2022/10/07 07:00:57;;;;;;;;;12.25;11.75;;;;;17.33;60.92;99720.47;4938408;28;102485;-60
2022/10/07 07:03:24;;;;;;;;;13.25;13.00;;;;;17.35;60.81;99723.81;4928736;28;102307;-61
2022/10/07 07:05:51;;;;;;;;;12.00;11.50;;;;;17.37;61.76;99718.97;4934028;28;102182;-61
2022/10/07 07:08:22;;;;;;;;;13.50;10.75;;;;;17.35;61.27;99713.72;4927724;28;104187;-61
2022/10/07 07:10:48;;;;;;;;;13.00;13.00;;;;;17.38;60.73;99716.00;4940404;28;102498;-61
2022/10/07 07:13:16;;;;;;;;;15.00;13.50;;;;;17.40;61.51;99718.53;4933167;28;102472;-60
2022/10/07 07:15:56;;;;;;;;;14.50;12.75;;;;;17.38;61.12;99717.94;4913356;28;102407;-60
2022/10/07 07:18:23;;;;;;;;;12.50;12.00;;;;;17.37;61.56;99714.34;4929252;28;108940;-60
2022/10/07 07:20:50;;;;;;;;;11.00;11.00;;;;;17.39;60.66;99717.69;4940098;28;102477;-61
2022/10/07 07:23:17;;;;;;;;;12.50;11.00;;;;;17.42;60.65;99714.50;4949162;28;103205;-62
2022/10/07 07:25:45;;;;;;;;;13.00;12.75;;;;;17.46;60.47;99716.84;4951960;28;102148;-61
2022/10/07 07:28:14;;;;;;;;;13.75;13.00;;;;;17.46;60.42;99709.47;4931197;28;110153;-62
2022/10/07 07:30:42;;;;;;;;;11.00;11.00;;;;;17.49;60.54;99714.50;4928735;28;102397;-61
2022/10/07 07:33:09;;;;;;;;;13.75;12.75;;;;;17.54;60.67;99716.56;4935097;28;102158;-62
2022/10/07 07:35:40;;;;;;;;;11.50;11.00;;;;;17.56;60.29;99715.28;4933090;28;109696;-61
2022/10/07 07:38:07;;;;;;;;;13.75;12.75;;;;;17.58;60.03;99715.94;4932582;28;104211;-61
2022/10/07 07:40:37;;;;;;;;;11.00;11.00;;;;;17.59;60.69;99717.63;4924504;28;102185;-61
2022/10/07 07:43:05;;;;;;;;;11.50;10.25;;;;;17.62;60.73;99708.13;4943571;28;102316;-61
2022/10/07 07:45:35;;;;;;;;;11.75;11.75;;;;;17.63;59.74;99705.19;4900873;28;102125;-62
2022/10/07 07:48:02;;;;;;;;;14.00;12.25;;;;;17.65;60.20;99707.72;4920631;28;104047;-61
2022/10/07 07:50:29;;;;;;;;;12.00;11.00;;;;;17.66;59.68;99709.38;4893408;28;103213;-61
2022/10/07 07:52:58;;;;;;;;;13.25;12.50;;;;;17.68;59.95;99699.06;4920240;28;102556;-61
2022/10/07 07:55:25;;;;;;;;;11.25;10.50;;;;;17.70;60.04;99703.25;4915958;28;107359;-61
2022/10/07 07:57:52;;;;;;;;;12.25;11.75;;;;;17.71;59.90;99693.97;4918638;28;104092;-60
2022/10/07 08:00:19;;;;;;;;;13.00;10.75;;;;;17.72;59.81;99689.34;4916652;28;102463;-60
2022/10/07 08:02:47;;;;;;;;;8.75;8.25;;;;;17.73;59.79;99689.13;4926808;28;102113;-61
2022/10/07 08:05:14;;;;;;;;;12.50;12.00;;;;;17.75;59.92;99681.53;4933154;28;102416;-61
2022/10/07 08:07:47;;;;;;;;;13.25;12.50;;;;;17.76;59.73;99683.22;4912395;28;109062;-61
2022/10/07 08:10:14;;;;;;;;;11.00;10.00;;;;;17.77;59.95;99684.91;4928896;28;102201;-62
2022/10/07 08:12:41;;;;;;;;;13.75;11.50;;;;;17.79;59.99;99681.94;4914854;28;102460;-61
2022/10/07 08:15:09;;;;;;;;;11.50;11.50;;;;;17.80;59.97;99668.03;4918195;28;102317;-62
2022/10/07 08:17:36;;;;;;;;;11.00;9.50;;;;;17.82;59.46;99682.34;4918417;28;104068;-61
2022/10/07 08:20:03;;;;;;;;;13.25;12.00;;;;;17.83;59.49;99670.31;4928085;28;102105;-62
2022/10/07 08:22:30;;;;;;;;;10.00;9.00;;;;;17.84;59.83;99663.78;4914658;28;102429;-61
2022/10/07 08:24:59;;;;;;;;;11.00;10.00;;;;;17.86;59.44;99665.47;4915754;28;102357;-61
2022/10/07 08:27:27;;;;;;;;;8.75;8.75;;;;;17.87;60.13;99662.53;4915139;28;104572;-60
2022/10/07 08:29:54;;;;;;;;;10.67;10.00;;;;;17.87;59.78;99656.22;4919163;28;102182;-61
2022/10/07 08:32:21;;;;;;;;;12.00;11.00;;;;;17.88;59.89;99663.38;4912351;28;106830;-61
2022/10/07 08:34:47;;;;;;;;;11.33;11.00;;;;;17.88;59.45;99663.38;4916024;28;102717;-61
2022/10/07 08:37:14;;;;;;;;;12.25;11.00;;;;;17.88;60.04;99653.22;4920937;28;104069;-61
2022/10/07 08:39:41;;;;;;;;;11.50;9.75;;;;;17.89;59.72;99654.06;4922290;28;102279;-61
2022/10/07 08:42:14;;;;;;;;;9.75;8.25;;;;;17.89;59.36;99651.34;4914359;28;102385;-61
2022/10/07 08:44:42;;;;;;;;;12.50;10.25;;;;;17.90;59.23;99642.91;4911959;28;102411;-61
2022/10/07 08:47:47;;;;;;;;;10.25;10.00;;;;;17.91;59.52;99641.03;4906768;28;104573;-61
2022/10/07 08:50:38;;;;;;;;;10.00;10.00;;;;;17.92;59.49;99639.97;4852412;28;102014;-60
2022/10/07 08:53:07;;;;;;;;;4.00;4.00;;;;;17.92;59.87;99634.50;4854156;28;102562;-61
2022/10/07 08:55:54;;;;;;;;;12.50;12.00;;;;;17.92;59.57;99639.97;4880345;28;102300;-61
2022/10/07 08:58:39;;;;;;;;;11.33;11.00;;;;;17.93;59.28;99638.88;4939340;28;108722;-61
2022/10/07 09:01:28;;;;;;;;;11.67;11.00;;;;;17.94;59.46;99629.63;4894584;28;105226;-61
2022/10/07 09:04:18;;;;;;;;;10.67;10.33;;;;;17.94;59.74;99635.09;4929559;28;102099;-61
2022/10/07 09:06:50;;;;;;;;;9.00;9.00;;;;;17.94;59.66;99630.47;4901468;28;102610;-61
2022/10/07 09:09:21;;;;;;;;;10.67;10.67;;;;;17.95;60.13;99625.84;4920015;28;109000;-61
2022/10/07 09:11:48;;;;;;;;;12.25;11.75;;;;;17.95;59.50;99620.34;4901925;28;102615;-61
2022/10/07 09:14:29;;;;;;;;;11.00;10.33;;;;;17.96;60.00;99625.63;4923015;28;102316;-61
2022/10/07 09:17:01;;;;;;;;;10.00;9.50;;;;;17.97;59.92;99618.22;4925770;28;103397;-61
2022/10/07 09:19:44;;;;;;;;;11.00;11.00;;;;;17.96;59.96;99611.09;4919287;28;104077;-60
2022/10/07 09:22:30;;;;;;;;;9.00;8.75;;;;;17.98;60.12;99625.38;4912280;28;102399;-61
2022/10/07 09:25:16;;;;;;;;;7.75;6.50;;;;;17.99;59.86;99616.94;4930202;28;102387;-61
2022/10/07 09:27:43;;;;;;;;;11.50;10.00;;;;;17.98;60.25;99614.44;4934312;28;102395;-61
2022/10/07 09:30:14;;;;;;;;;11.75;10.00;;;;;18.00;59.98;99617.78;4942417;28;104375;-61
2022/10/07 09:32:53;;;;;;;;;9.33;9.33;;;;;17.99;59.87;99610.63;4941293;28;102460;-61
2022/10/07 09:35:25;;;;;;;;;9.00;7.67;;;;;18.00;59.42;99606.84;4906978;28;102436;-61
2022/10/07 09:38:08;;;;;;;;;8.00;7.00;;;;;17.99;60.26;99599.69;4930628;28;102391;-61
2022/10/07 09:41:13;;;;;;;;;9.00;8.00;;;;;18.00;60.21;99596.75;4921979;28;104074;-62
2022/10/07 09:43:23;;;;;;;;;9.75;9.25;;;;;18.00;59.74;99595.91;4919812;28;102391;-61
2022/10/07 09:45:50;;;;;;;;;9.00;8.00;;;;;18.00;59.54;99594.00;4926019;28;101941;-61
2022/10/07 09:48:32;;;;;;;;;8.00;8.00;;;;;18.00;59.69;99585.78;4917502;28;102268;-61
2022/10/07 09:51:15;;;;;;;;;8.00;7.25;;;;;18.01;60.02;99589.38;4937201;28;103461;-60
2022/10/07 09:54:18;;;;;;;;;9.00;9.00;;;;;18.02;59.78;99593.75;4936425;28;102092;-61
2022/10/07 09:56:45;;;;;;;;;11.00;10.00;;;;;18.02;59.70;99589.13;4907946;28;102196;-61
2022/10/07 09:59:16;;;;;;;;;12.00;10.00;;;;;18.03;59.59;99584.50;4945225;28;102430;-61
2022/10/07 10:01:49;;;;;;;;;11.00;10.00;;;;;18.03;60.29;99581.75;4933198;28;108841;-60
2022/10/07 10:04:18;;;;;;;;;9.33;8.67;;;;;18.03;60.01;99576.28;4945725;28;111058;-61
2022/10/07 10:06:48;;;;;;;;;10.00;9.00;;;;;18.02;59.88;99572.69;4926304;28;102126;-61
2022/10/07 10:09:21;;;;;;;;;10.00;9.67;;;;;18.04;59.30;99575.22;4946711;28;102338;-61
2022/10/07 10:11:59;;;;;;;;;11.33;9.00;;;;;18.05;59.89;99571.44;4918204;28;108090;-61
2022/10/07 10:14:35;;;;;;;;;10.33;9.00;;;;;18.05;60.07;99565.97;4930831;28;102349;-62
2022/10/07 10:17:03;;;;;;;;;8.00;8.00;;;;;18.05;59.66;99564.06;4931701;28;102482;-61
2022/10/07 10:19:30;;;;;;;;;8.00;8.00;;;;;18.05;59.32;99558.59;4924462;28;102462;-61
2022/10/07 10:22:03;;;;;;;;;9.00;9.00;;;;;18.06;59.63;99560.22;4934332;28;104886;-60
2022/10/07 10:27:19;;;;;;;;;11.33;10.00;;;;;18.07;59.73;99552.88;4931561;28;102432;-61
2022/10/07 10:29:55;;;;;;;;;11.00;8.67;;;;;18.07;59.73;99541.91;4912851;28;102407;-61
2022/10/07 10:32:42;;;;;;;;;8.00;8.00;;;;;18.09;59.76;99548.00;4930284;28;108908;-61
2022/10/07 10:35:12;;;;;;;;;11.67;10.00;;;;;18.09;60.11;99539.81;4808856;28;102279;-61
2022/10/07 10:37:39;;;;;;;;;10.00;8.33;;;;;18.10;59.03;99536.00;4929573;28;102317;-60
2022/10/07 10:40:33;;;;;;;;;9.00;8.00;;;;;18.11;59.51;99529.44;4946770;28;102419;-61
2022/10/07 10:43:05;;;;;;;;;9.00;8.00;;;;;18.11;59.74;99538.50;4908746;28;108796;-62
2022/10/07 10:46:14;;;;;;;;;10.00;9.00;;;;;18.10;59.53;99525.06;4916157;28;102491;-61
2022/10/07 10:48:43;;;;;;;;;8.00;7.33;;;;;18.11;59.58;99515.75;4937554;28;102550;-61
2022/10/07 10:51:30;;;;;;;;;6.00;5.67;;;;;18.12;59.13;99511.97;4936895;28;102879;-61
2022/10/07 10:54:21;;;;;;;;;7.33;7.33;;;;;18.13;58.79;99511.75;4911836;28;108764;-61
2022/10/07 10:56:52;;;;;;;;;10.67;10.00;;;;;18.13;59.68;99509.00;4929965;28;102335;-61
2022/10/07 10:59:41;;;;;;;;;10.00;8.67;;;;;18.13;59.42;99503.53;4931685;28;102628;-61
2022/10/07 11:02:28;;;;;;;;;10.00;8.33;;;;;18.12;59.17;99496.38;4934935;28;102645;-60
2022/10/07 11:05:03;;;;;;;;;9.00;9.00;;;;;18.11;59.50;99486.50;4883488;28;104452;-61
2022/10/07 11:07:38;;;;;;;;;9.00;8.33;;;;;18.12;59.25;99490.91;4814742;28;102422;-61
2022/10/07 11:10:26;;;;;;;;;8.33;8.33;;;;;18.13;59.17;99489.00;4912293;28;101991;-60
2022/10/07 11:12:58;;;;;;;;;10.33;9.00;;;;;18.13;59.46;99476.16;4939678;28;102499;-61
2022/10/07 11:15:36;;;;;;;;;8.00;8.00;;;;;18.13;59.34;99473.44;4895317;28;104226;-61
2022/10/07 11:18:09;;;;;;;;;8.33;8.00;;;;;18.14;59.16;99461.41;4894925;28;102685;-61
2022/10/07 11:20:38;;;;;;;;;7.00;6.67;;;;;18.15;59.20;99467.69;4914848;28;106905;-60
2022/10/07 11:23:24;;;;;;;;;7.67;7.67;;;;;18.15;59.47;99448.53;4912939;28;102412;-61
2022/10/07 11:26:15;;;;;;;;;9.67;8.67;;;;;18.17;59.16;99454.63;4912453;28;107896;-61
2022/10/07 11:28:44;;;;;;;;;7.00;7.00;;;;;18.17;59.63;99449.16;4931152;28;102533;-61
2022/10/07 11:31:38;;;;;;;;;8.00;8.00;;;;;18.17;59.53;99440.94;4930629;28;102696;-61
2022/10/07 11:34:11;;;;;;;;;8.33;7.00;;;;;18.18;59.54;99438.00;4934946;28;103051;-60
2022/10/07 11:36:38;;;;;;;;;6.00;6.00;;;;;18.19;59.64;99436.09;4923913;28;104080;-60
2022/10/07 11:39:07;;;;;;;;;7.00;6.33;;;;;18.19;59.38;99427.88;4927806;28;102318;-61
2022/10/07 11:41:40;;;;;;;;;8.00;8.00;;;;;18.20;60.11;99421.31;4927869;28;102197;-60
2022/10/07 11:44:12;;;;;;;;;9.00;8.33;;;;;18.22;59.78;99424.69;4811081;28;102580;-60